Thursday, September 20, 2018, 6:59 PM EDT
Back to Local

KLOM, Philadelphia, Wings Field Airport

Location: Blue Bell, PA, United States Lat: 40.138
Local Time: 6:59 PM EDT (22:59 GMT) Lon: -75.265
Time Zone: US/Eastern Elev: 301 ft

Show me the last for .
Show Coded

Time T Td Feel RH Dir Speed Gust Alt SLP Vis Weather Sky Remarks
2018-09-20 18:35 66 63 - 88 - Calm - 30.23 - 10 CLR None
2018-09-20 18:15 68 63 - 82 - Calm - 30.23 - 10 SCT023 SCT049 None
2018-09-20 17:55 68 63 - 82 110° 5 - 30.22 - 10 SCT023 SCT027 BKN049 None
2018-09-20 17:35 68 63 - 82 100° 5 - 30.23 - 10 OVC023 None
2018-09-20 17:15 70 63 - 77 100° 6 - 30.22 - 10 BKN025 OVC048 None
2018-09-20 16:55 70 63 - 77 110° 6 - 30.22 - 10 SCT022 SCT027 OVC048 None
2018-09-20 16:35 70 63 - 77 120° 5 - 30.22 - 10 BKN029 BKN034 OVC045 None
2018-09-20 16:15 70 63 - 77 110° 3 - 30.22 - 10 OVC026 None
2018-09-20 15:55 70 63 - 77 110° 5 - 30.22 - 10 OVC023 None
2018-09-20 15:35 70 63 - 77 110° 8 - 30.22 - 10 OVC025 None
2018-09-20 15:15 72 63 76 73 120° 5 - 30.22 - 10 SCT023 BKN028 OVC050 None
2018-09-20 14:55 70 63 - 77 110° 5 - 30.22 - 10 OVC025 None
2018-09-20 14:35 70 63 - 77 120° 5 - 30.22 - 10 OVC025 None
2018-09-20 14:15 70 63 - 77 100° 5 - 30.23 - 10 OVC023 None
2018-09-20 13:55 70 63 - 77 - Calm - 30.23 - 10 OVC023 None
2018-09-20 13:35 70 63 - 77 90° 5 - 30.23 - 10 OVC021 None
2018-09-20 13:15 70 63 - 77 100° 7 - 30.24 - 10 OVC021 None
2018-09-20 12:55 70 63 - 77 100° 5 - 30.24 - 10 OVC021 None
2018-09-20 12:35 68 63 - 82 110° 3 - 30.25 - 10 OVC019 None
2018-09-20 12:15 68 63 - 82 110° 3 - 30.25 - 10 BKN019 BKN024 OVC028 None
2018-09-20 11:55 68 63 - 82 90° 3 - 30.25 - 10 OVC020 None
2018-09-20 11:35 68 63 - 82 - Calm - 30.24 - 10 OVC018 None
2018-09-20 11:15 66 63 - 88 130° 3 - 30.25 - 10 OVC016 None
2018-09-20 10:55 68 63 - 82 110° 3 - 30.25 - 10 OVC014 None
2018-09-20 10:35 66 63 - 88 100° 5 - 30.24 - 10 OVC014 None
2018-09-20 10:15 64 63 - 93 90° 5 - 30.24 - 10 OVC014 None
2018-09-20 09:55 64 63 - 93 120° 3 - 30.24 - 10 OVC014 None
2018-09-20 09:35 64 63 - 93 100° 5 - 30.23 - 10 OVC014 None
2018-09-20 09:15 64 63 - 93 100° 3 - 30.22 - 10 OVC014 None
2018-09-20 08:55 63 63 - 100 130° 5 - 30.22 - 7 OVC012 None
2018-09-20 08:35 63 63 - 100 130° 5 - 30.21 - 5 OVC010 None
2018-09-20 08:15 64 63 - 93 90° 8 - 30.19 - 10 OVC010 None
2018-09-20 07:55 64 63 - 93 100° 6 - 30.19 - 10 OVC010 None
2018-09-20 07:35 64 64 - 100 90° 3 - 30.18 - 10 OVC010 None
2018-09-20 07:15 64 64 - 100 - Calm - 30.18 - 10 OVC012 None
2018-09-20 06:55 64 64 - 100 - Calm - 30.17 - 10 OVC010 None
2018-09-20 06:35 64 64 - 100 110° 5 - 30.16 - 10 OVC010 None
2018-09-20 06:15 64 64 - 100 - Calm - 30.14 - 10 BKN010 OVC013 None
2018-09-20 05:55 64 64 - 100 - Calm - 30.13 - 10 OVC013 None
2018-09-20 05:35 64 64 - 100 120° 5 - 30.11 - 10 BKN011 OVC018 None
2018-09-20 05:15 64 64 - 100 - Calm - 30.11 - 10 SCT011 BKN018 OVC029 None
2018-09-20 04:55 64 64 - 100 - Calm - 30.10 - 10 BKN009 OVC016 None
2018-09-20 04:35 64 64 - 100 - Calm - 30.10 - 4 BKN009 OVC014 None
2018-09-20 04:15 64 64 - 100 - Calm - 30.10 - 5 OVC012 None
2018-09-20 03:55 64 64 - 100 - Calm - 30.09 - 5 BKN012 OVC019 None
2018-09-20 03:35 64 64 - 100 - Calm - 30.09 - 4 SCT010 BKN025 OVC032 None
2018-09-20 03:15 64 64 - 100 - Calm - 30.09 - 4 SCT020 BKN026 OVC032 None
2018-09-20 02:55 63 63 - 100 - Calm - 30.09 - 4 SCT010 BKN020 OVC030 None
2018-09-20 02:35 63 63 - 100 - Calm - 30.08 - 1 BKN010 BKN022 BKN030 None
2018-09-20 02:15 63 63 - 100 - Calm - 30.08 - 1 BKN010 BKN013 None
2018-09-20 01:55 63 63 - 100 - Calm - 30.08 - 4 SCT008 None
2018-09-20 01:35 63 63 - 100 - Calm - 30.08 - 4 CLR None
2018-09-20 01:15 63 63 - 100 - Calm - 30.08 - 7 SCT010 SCT013 SCT027 None
2018-09-20 00:55 64 64 - 100 - Calm - 30.08 - 7 BKN008 BKN015 OVC029 None
2018-09-20 00:35 63 63 - 100 - Calm - 30.08 - 10 SCT008 SCT013 BKN022 None
2018-09-20 00:15 63 63 - 100 - Calm - 30.07 - 10 SCT014 SCT019 SCT024 None
2018-09-19 23:55 63 63 - 100 - Calm - 30.07 - 10 CLR None
2018-09-19 23:35 64 63 - 93 - Calm - 30.06 - 10 SCT049 None
2018-09-19 23:15 64 64 - 100 - Calm - 30.06 - 10 BKN049 None
2018-09-19 22:55 64 64 - 100 - Calm - 30.06 - 10 SCT049 None
2018-09-19 22:35 68 63 - 82 100° 3 - 30.05 - 10 CLR None
2018-09-19 22:15 68 63 - 82 10° 3 - 30.04 - 10 SCT050 None
2018-09-19 21:55 70 63 - 77 - Calm - 30.04 - 10 BKN050 None
2018-09-19 21:35 68 64 - 88 - Calm - 30.04 - 10 OVC050 None
2018-09-19 21:15 68 64 - 88 - Calm - 30.03 - 10 OVC048 None
2018-09-19 20:55 66 66 - 100 - Calm - 30.02 - 10 BKN048 None
2018-09-19 20:35 64 64 - 100 - Calm - 30.01 - 10 SCT048 None
2018-09-19 20:15 64 64 - 100 - Calm - 30.00 - 10 SCT046 None
2018-09-19 19:55 64 64 - 100 - Calm - 29.99 - 10 CLR None
2018-09-19 19:35 66 66 - 100 - Calm - 29.99 - 10 CLR None
2018-09-19 19:15 68 68 - 100 - Calm - 29.98 - 10 CLR None

Support USWX by starting your Amazon purchase here.